sensor_id;sensor_type;location;lat;lon;timestamp;temperature;humidity
36856;DHT22;22788;51.434;6.786;2024-03-02T00:02:16;8.80;99.90
36856;DHT22;22788;51.434;6.786;2024-03-02T00:04:44;8.80;99.90
36856;DHT22;22788;51.434;6.786;2024-03-02T00:07:09;8.80;99.90
36856;DHT22;22788;51.434;6.786;2024-03-02T00:09:36;8.80;99.90
36856;DHT22;22788;51.434;6.786;2024-03-02T00:12:03;8.70;99.90
36856;DHT22;22788;51.434;6.786;2024-03-02T00:14:31;8.90;99.90
36856;DHT22;22788;51.434;6.786;2024-03-02T00:16:57;9.30;99.90
36856;DHT22;22788;51.434;6.786;2024-03-02T00:19:22;8.80;99.90
36856;DHT22;22788;51.434;6.786;2024-03-02T00:21:48;9.10;99.90
36856;DHT22;22788;51.434;6.786;2024-03-02T00:24:20;8.90;99.90
36856;DHT22;22788;51.434;6.786;2024-03-02T00:26:46;8.90;99.90
36856;DHT22;22788;51.434;6.786;2024-03-02T00:29:16;8.80;99.90
36856;DHT22;22788;51.434;6.786;2024-03-02T00:31:42;8.90;99.90
36856;DHT22;22788;51.434;6.786;2024-03-02T00:34:08;8.90;99.90
36856;DHT22;22788;51.434;6.786;2024-03-02T00:36:34;8.80;99.90
36856;DHT22;22788;51.434;6.786;2024-03-02T00:38:59;8.90;99.90
36856;DHT22;22788;51.434;6.786;2024-03-02T00:41:27;8.90;99.90
36856;DHT22;22788;51.434;6.786;2024-03-02T00:44:00;8.90;99.90
36856;DHT22;22788;51.434;6.786;2024-03-02T00:46:27;8.80;99.90
36856;DHT22;22788;51.434;6.786;2024-03-02T00:48:55;8.80;99.90
36856;DHT22;22788;51.434;6.786;2024-03-02T00:51:21;8.80;99.90
36856;DHT22;22788;51.434;6.786;2024-03-02T00:53:47;8.90;99.90
36856;DHT22;22788;51.434;6.786;2024-03-02T00:56:13;8.80;99.90
36856;DHT22;22788;51.434;6.786;2024-03-02T00:58:39;8.90;99.90
36856;DHT22;22788;51.434;6.786;2024-03-02T01:01:05;8.90;99.90
36856;DHT22;22788;51.434;6.786;2024-03-02T01:03:32;8.90;99.90
36856;DHT22;22788;51.434;6.786;2024-03-02T01:05:58;8.90;99.90
36856;DHT22;22788;51.434;6.786;2024-03-02T01:08:23;8.90;99.90
36856;DHT22;22788;51.434;6.786;2024-03-02T01:10:49;9.80;99.90
36856;DHT22;22788;51.434;6.786;2024-03-02T01:13:15;8.90;99.90
36856;DHT22;22788;51.434;6.786;2024-03-02T01:15:40;8.90;99.90
36856;DHT22;22788;51.434;6.786;2024-03-02T01:18:06;8.90;99.90
36856;DHT22;22788;51.434;6.786;2024-03-02T01:20:33;8.90;99.90
36856;DHT22;22788;51.434;6.786;2024-03-02T01:22:59;8.90;99.90
36856;DHT22;22788;51.434;6.786;2024-03-02T01:25:24;8.90;99.90
36856;DHT22;22788;51.434;6.786;2024-03-02T01:27:50;8.90;99.90
36856;DHT22;22788;51.434;6.786;2024-03-02T01:30:15;8.90;99.90
36856;DHT22;22788;51.434;6.786;2024-03-02T01:32:41;8.80;99.90
36856;DHT22;22788;51.434;6.786;2024-03-02T01:35:07;8.90;99.90
36856;DHT22;22788;51.434;6.786;2024-03-02T01:37:34;8.90;99.90
36856;DHT22;22788;51.434;6.786;2024-03-02T01:40:00;8.90;99.90
36856;DHT22;22788;51.434;6.786;2024-03-02T01:42:26;8.80;99.90
36856;DHT22;22788;51.434;6.786;2024-03-02T01:44:51;8.80;99.90
36856;DHT22;22788;51.434;6.786;2024-03-02T01:47:17;8.90;99.90
36856;DHT22;22788;51.434;6.786;2024-03-02T01:49:43;8.80;99.90
36856;DHT22;22788;51.434;6.786;2024-03-02T01:52:08;8.80;99.90
36856;DHT22;22788;51.434;6.786;2024-03-02T01:54:36;8.90;99.90
36856;DHT22;22788;51.434;6.786;2024-03-02T01:57:01;8.80;99.90
36856;DHT22;22788;51.434;6.786;2024-03-02T01:59:27;8.80;99.90
36856;DHT22;22788;51.434;6.786;2024-03-02T02:01:53;8.80;99.90
36856;DHT22;22788;51.434;6.786;2024-03-02T02:04:18;8.80;99.90
36856;DHT22;22788;51.434;6.786;2024-03-02T02:06:44;8.80;99.90
36856;DHT22;22788;51.434;6.786;2024-03-02T02:09:10;8.80;99.90
36856;DHT22;22788;51.434;6.786;2024-03-02T02:11:37;8.90;99.90
36856;DHT22;22788;51.434;6.786;2024-03-02T02:14:02;8.90;99.90
36856;DHT22;22788;51.434;6.786;2024-03-02T02:16:28;8.80;99.90
36856;DHT22;22788;51.434;6.786;2024-03-02T02:18:53;8.80;99.90
36856;DHT22;22788;51.434;6.786;2024-03-02T02:21:24;8.90;99.90
36856;DHT22;22788;51.434;6.786;2024-03-02T02:23:49;8.80;99.90
36856;DHT22;22788;51.434;6.786;2024-03-02T02:26:15;9.40;99.90
36856;DHT22;22788;51.434;6.786;2024-03-02T02:28:41;8.90;99.90
36856;DHT22;22788;51.434;6.786;2024-03-02T02:31:06;8.90;99.90
36856;DHT22;22788;51.434;6.786;2024-03-02T02:33:32;9.50;99.90
36856;DHT22;22788;51.434;6.786;2024-03-02T02:35:57;8.90;99.90
36856;DHT22;22788;51.434;6.786;2024-03-02T02:38:24;8.90;99.90
36856;DHT22;22788;51.434;6.786;2024-03-02T02:40:50;8.90;99.90
36856;DHT22;22788;51.434;6.786;2024-03-02T02:43:15;8.90;99.90
36856;DHT22;22788;51.434;6.786;2024-03-02T02:45:41;8.90;99.90
36856;DHT22;22788;51.434;6.786;2024-03-02T02:48:07;8.90;99.90
36856;DHT22;22788;51.434;6.786;2024-03-02T02:50:32;8.90;99.90
36856;DHT22;22788;51.434;6.786;2024-03-02T02:52:58;9.70;99.90
36856;DHT22;22788;51.434;6.786;2024-03-02T02:55:25;8.90;99.90
36856;DHT22;22788;51.434;6.786;2024-03-02T02:57:51;8.90;99.90
36856;DHT22;22788;51.434;6.786;2024-03-02T03:00:17;8.90;99.90
36856;DHT22;22788;51.434;6.786;2024-03-02T03:02:44;8.90;99.90
36856;DHT22;22788;51.434;6.786;2024-03-02T03:05:10;8.90;99.90
36856;DHT22;22788;51.434;6.786;2024-03-02T03:07:36;8.80;99.90
36856;DHT22;22788;51.434;6.786;2024-03-02T03:10:03;8.90;99.90
36856;DHT22;22788;51.434;6.786;2024-03-02T03:12:30;8.90;99.90
36856;DHT22;22788;51.434;6.786;2024-03-02T03:14:56;8.80;99.90
36856;DHT22;22788;51.434;6.786;2024-03-02T03:17:22;8.80;99.90
36856;DHT22;22788;51.434;6.786;2024-03-02T03:19:47;8.80;99.90
36856;DHT22;22788;51.434;6.786;2024-03-02T03:22:13;8.90;99.90
36856;DHT22;22788;51.434;6.786;2024-03-02T03:24:38;8.90;99.90
36856;DHT22;22788;51.434;6.786;2024-03-02T03:27:04;8.90;99.90
36856;DHT22;22788;51.434;6.786;2024-03-02T03:29:31;8.80;99.90
36856;DHT22;22788;51.434;6.786;2024-03-02T03:31:57;8.80;99.90
36856;DHT22;22788;51.434;6.786;2024-03-02T03:34:22;8.90;99.90
36856;DHT22;22788;51.434;6.786;2024-03-02T03:36:48;8.90;99.90
36856;DHT22;22788;51.434;6.786;2024-03-02T03:39:13;8.90;99.90
36856;DHT22;22788;51.434;6.786;2024-03-02T03:41:40;8.80;99.90
36856;DHT22;22788;51.434;6.786;2024-03-02T03:44:06;8.90;99.90
36856;DHT22;22788;51.434;6.786;2024-03-02T03:46:33;8.80;99.90
36856;DHT22;22788;51.434;6.786;2024-03-02T03:48:59;8.80;99.90
36856;DHT22;22788;51.434;6.786;2024-03-02T03:51:24;8.80;99.90
36856;DHT22;22788;51.434;6.786;2024-03-02T03:53:50;8.80;99.90
36856;DHT22;22788;51.434;6.786;2024-03-02T03:56:15;8.80;99.90
36856;DHT22;22788;51.434;6.786;2024-03-02T03:58:41;8.80;99.90
36856;DHT22;22788;51.434;6.786;2024-03-02T04:01:06;8.80;99.90
36856;DHT22;22788;51.434;6.786;2024-03-02T04:03:33;9.30;99.90
36856;DHT22;22788;51.434;6.786;2024-03-02T04:05:59;8.80;99.90
36856;DHT22;22788;51.434;6.786;2024-03-02T04:08:24;8.80;99.90
36856;DHT22;22788;51.434;6.786;2024-03-02T04:10:50;8.80;99.90
36856;DHT22;22788;51.434;6.786;2024-03-02T04:13:16;8.80;99.90
36856;DHT22;22788;51.434;6.786;2024-03-02T04:15:41;8.80;99.90
36856;DHT22;22788;51.434;6.786;2024-03-02T04:18:07;8.80;99.90
36856;DHT22;22788;51.434;6.786;2024-03-02T04:20:34;8.80;99.90
36856;DHT22;22788;51.434;6.786;2024-03-02T04:23:00;8.70;99.90
36856;DHT22;22788;51.434;6.786;2024-03-02T04:25:25;8.70;99.90
36856;DHT22;22788;51.434;6.786;2024-03-02T04:27:51;8.70;99.90
36856;DHT22;22788;51.434;6.786;2024-03-02T04:30:16;8.80;99.90
36856;DHT22;22788;51.434;6.786;2024-03-02T04:32:42;8.80;99.90
36856;DHT22;22788;51.434;6.786;2024-03-02T04:35:08;8.70;99.90
36856;DHT22;22788;51.434;6.786;2024-03-02T04:37:35;8.70;99.90
36856;DHT22;22788;51.434;6.786;2024-03-02T04:40:01;8.80;99.90
36856;DHT22;22788;51.434;6.786;2024-03-02T04:42:26;8.70;99.90
36856;DHT22;22788;51.434;6.786;2024-03-02T04:44:52;8.70;99.90
36856;DHT22;22788;51.434;6.786;2024-03-02T04:47:17;8.70;99.90
36856;DHT22;22788;51.434;6.786;2024-03-02T04:49:43;8.70;99.90
36856;DHT22;22788;51.434;6.786;2024-03-02T04:52:09;8.70;99.90
36856;DHT22;22788;51.434;6.786;2024-03-02T04:54:36;9.50;99.90
36856;DHT22;22788;51.434;6.786;2024-03-02T04:57:01;8.70;99.90
36856;DHT22;22788;51.434;6.786;2024-03-02T04:59:27;8.70;99.90
36856;DHT22;22788;51.434;6.786;2024-03-02T05:01:53;8.70;99.90
36856;DHT22;22788;51.434;6.786;2024-03-02T05:04:18;8.70;99.90
36856;DHT22;22788;51.434;6.786;2024-03-02T05:06:44;8.70;99.90
36856;DHT22;22788;51.434;6.786;2024-03-02T05:09:09;8.70;99.90
36856;DHT22;22788;51.434;6.786;2024-03-02T05:11:37;8.80;99.90
36856;DHT22;22788;51.434;6.786;2024-03-02T05:14:02;8.70;99.90
36856;DHT22;22788;51.434;6.786;2024-03-02T05:16:28;8.70;99.90
36856;DHT22;22788;51.434;6.786;2024-03-02T05:18:53;8.70;99.90
36856;DHT22;22788;51.434;6.786;2024-03-02T05:21:19;8.70;99.90
36856;DHT22;22788;51.434;6.786;2024-03-02T05:23:44;8.70;99.90
36856;DHT22;22788;51.434;6.786;2024-03-02T05:26:10;8.70;99.90
36856;DHT22;22788;51.434;6.786;2024-03-02T05:28:38;8.70;99.90
36856;DHT22;22788;51.434;6.786;2024-03-02T05:31:03;8.70;99.90
36856;DHT22;22788;51.434;6.786;2024-03-02T05:33:29;8.70;99.90
36856;DHT22;22788;51.434;6.786;2024-03-02T05:35:54;8.60;99.90
36856;DHT22;22788;51.434;6.786;2024-03-02T05:38:20;8.70;99.90
36856;DHT22;22788;51.434;6.786;2024-03-02T05:40:45;8.70;99.90
36856;DHT22;22788;51.434;6.786;2024-03-02T05:43:11;8.60;99.90
36856;DHT22;22788;51.434;6.786;2024-03-02T05:45:38;8.70;99.90
36856;DHT22;22788;51.434;6.786;2024-03-02T05:48:04;8.60;99.90
36856;DHT22;22788;51.434;6.786;2024-03-02T05:50:30;8.70;99.90
36856;DHT22;22788;51.434;6.786;2024-03-02T05:52:55;8.70;99.90
36856;DHT22;22788;51.434;6.786;2024-03-02T05:55:21;8.60;99.90
36856;DHT22;22788;51.434;6.786;2024-03-02T05:57:47;8.50;99.90
36856;DHT22;22788;51.434;6.786;2024-03-02T06:00:13;8.60;99.90
36856;DHT22;22788;51.434;6.786;2024-03-02T06:02:40;8.60;99.90
36856;DHT22;22788;51.434;6.786;2024-03-02T06:05:06;8.60;99.90
36856;DHT22;22788;51.434;6.786;2024-03-02T06:07:32;8.60;99.90
36856;DHT22;22788;51.434;6.786;2024-03-02T06:09:57;8.60;99.90
36856;DHT22;22788;51.434;6.786;2024-03-02T06:12:23;8.60;99.90
36856;DHT22;22788;51.434;6.786;2024-03-02T06:14:48;8.60;99.90
36856;DHT22;22788;51.434;6.786;2024-03-02T06:17:14;8.50;99.90
36856;DHT22;22788;51.434;6.786;2024-03-02T06:19:41;8.60;99.90
36856;DHT22;22788;51.434;6.786;2024-03-02T06:22:06;8.60;99.90
36856;DHT22;22788;51.434;6.786;2024-03-02T06:24:32;8.60;99.90
36856;DHT22;22788;51.434;6.786;2024-03-02T06:26:58;8.60;99.90
36856;DHT22;22788;51.434;6.786;2024-03-02T06:29:23;8.60;99.90
36856;DHT22;22788;51.434;6.786;2024-03-02T06:31:49;8.60;99.90
36856;DHT22;22788;51.434;6.786;2024-03-02T06:34:14;8.50;99.90
36856;DHT22;22788;51.434;6.786;2024-03-02T06:36:41;8.50;99.90
36856;DHT22;22788;51.434;6.786;2024-03-02T06:39:07;8.50;99.90
36856;DHT22;22788;51.434;6.786;2024-03-02T06:41:33;8.50;99.90
36856;DHT22;22788;51.434;6.786;2024-03-02T06:43:59;8.50;99.90
36856;DHT22;22788;51.434;6.786;2024-03-02T06:46:24;8.80;99.90
36856;DHT22;22788;51.434;6.786;2024-03-02T06:48:50;8.50;99.90
36856;DHT22;22788;51.434;6.786;2024-03-02T06:51:15;8.50;99.90
36856;DHT22;22788;51.434;6.786;2024-03-02T06:53:42;8.60;99.90
36856;DHT22;22788;51.434;6.786;2024-03-02T06:56:08;8.50;99.90
36856;DHT22;22788;51.434;6.786;2024-03-02T06:58:34;8.50;99.90
36856;DHT22;22788;51.434;6.786;2024-03-02T07:00:59;8.50;99.90
36856;DHT22;22788;51.434;6.786;2024-03-02T07:03:25;8.80;99.90
36856;DHT22;22788;51.434;6.786;2024-03-02T07:05:50;8.50;99.90
36856;DHT22;22788;51.434;6.786;2024-03-02T07:08:16;8.50;99.90
36856;DHT22;22788;51.434;6.786;2024-03-02T07:10:43;8.50;99.90
36856;DHT22;22788;51.434;6.786;2024-03-02T07:13:08;8.50;99.90
36856;DHT22;22788;51.434;6.786;2024-03-02T07:15:34;8.50;99.90
36856;DHT22;22788;51.434;6.786;2024-03-02T07:18:00;8.90;99.90
36856;DHT22;22788;51.434;6.786;2024-03-02T07:20:25;8.50;99.90
36856;DHT22;22788;51.434;6.786;2024-03-02T07:22:51;8.50;99.90
36856;DHT22;22788;51.434;6.786;2024-03-02T07:25:16;8.60;99.90
36856;DHT22;22788;51.434;6.786;2024-03-02T07:27:43;8.60;99.90
36856;DHT22;22788;51.434;6.786;2024-03-02T07:30:13;8.60;99.90
36856;DHT22;22788;51.434;6.786;2024-03-02T07:32:38;8.50;99.90
36856;DHT22;22788;51.434;6.786;2024-03-02T07:35:05;8.80;99.90
36856;DHT22;22788;51.434;6.786;2024-03-02T07:37:30;8.50;99.90
36856;DHT22;22788;51.434;6.786;2024-03-02T07:39:56;8.50;99.90
36856;DHT22;22788;51.434;6.786;2024-03-02T07:42:22;8.50;99.90
36856;DHT22;22788;51.434;6.786;2024-03-02T07:44:49;8.50;99.90
36856;DHT22;22788;51.434;6.786;2024-03-02T07:47:14;8.50;99.90
36856;DHT22;22788;51.434;6.786;2024-03-02T07:49:40;8.60;99.90
36856;DHT22;22788;51.434;6.786;2024-03-02T07:52:06;8.60;99.90
36856;DHT22;22788;51.434;6.786;2024-03-02T07:54:31;8.60;99.90
36856;DHT22;22788;51.434;6.786;2024-03-02T07:56:57;8.60;99.90
36856;DHT22;22788;51.434;6.786;2024-03-02T07:59:23;8.60;99.90
36856;DHT22;22788;51.434;6.786;2024-03-02T08:01:50;8.60;99.90
36856;DHT22;22788;51.434;6.786;2024-03-02T08:04:16;8.60;99.90
36856;DHT22;22788;51.434;6.786;2024-03-02T08:06:41;8.70;99.90
36856;DHT22;22788;51.434;6.786;2024-03-02T08:09:07;8.70;99.90
36856;DHT22;22788;51.434;6.786;2024-03-02T08:11:32;8.60;99.90
36856;DHT22;22788;51.434;6.786;2024-03-02T08:13:58;8.60;99.90
36856;DHT22;22788;51.434;6.786;2024-03-02T08:16:24;8.60;99.90
36856;DHT22;22788;51.434;6.786;2024-03-02T08:18:51;8.60;99.90
36856;DHT22;22788;51.434;6.786;2024-03-02T08:21:17;8.80;99.90
36856;DHT22;22788;51.434;6.786;2024-03-02T08:23:43;8.60;99.90
36856;DHT22;22788;51.434;6.786;2024-03-02T08:26:09;8.70;99.90
36856;DHT22;22788;51.434;6.786;2024-03-02T08:28:35;8.70;99.90
36856;DHT22;22788;51.434;6.786;2024-03-02T08:31:00;8.70;99.90
36856;DHT22;22788;51.434;6.786;2024-03-02T08:33:26;8.70;99.90
36856;DHT22;22788;51.434;6.786;2024-03-02T08:35:55;8.70;99.90
36856;DHT22;22788;51.434;6.786;2024-03-02T08:38:21;8.70;99.90
36856;DHT22;22788;51.434;6.786;2024-03-02T08:40:47;8.80;99.90
36856;DHT22;22788;51.434;6.786;2024-03-02T08:43:12;8.80;99.90
36856;DHT22;22788;51.434;6.786;2024-03-02T08:45:38;8.80;99.90
36856;DHT22;22788;51.434;6.786;2024-03-02T08:48:04;8.90;99.90
36856;DHT22;22788;51.434;6.786;2024-03-02T08:50:30;8.90;99.90
36856;DHT22;22788;51.434;6.786;2024-03-02T08:52:57;8.80;99.90
36856;DHT22;22788;51.434;6.786;2024-03-02T08:55:23;8.90;99.90
36856;DHT22;22788;51.434;6.786;2024-03-02T08:57:48;8.80;99.90
36856;DHT22;22788;51.434;6.786;2024-03-02T09:00:14;8.90;99.90
36856;DHT22;22788;51.434;6.786;2024-03-02T09:02:40;8.90;99.90
36856;DHT22;22788;51.434;6.786;2024-03-02T09:05:06;8.90;99.90
36856;DHT22;22788;51.434;6.786;2024-03-02T09:07:32;8.90;99.90
36856;DHT22;22788;51.434;6.786;2024-03-02T09:09:59;8.90;99.90
36856;DHT22;22788;51.434;6.786;2024-03-02T09:12:25;9.10;99.90
36856;DHT22;22788;51.434;6.786;2024-03-02T09:14:50;9.10;99.90
36856;DHT22;22788;51.434;6.786;2024-03-02T09:17:17;9.10;99.90
36856;DHT22;22788;51.434;6.786;2024-03-02T09:19:43;9.10;99.90
36856;DHT22;22788;51.434;6.786;2024-03-02T09:22:08;8.80;99.90
36856;DHT22;22788;51.434;6.786;2024-03-02T09:24:34;9.20;99.90
36856;DHT22;22788;51.434;6.786;2024-03-02T09:27:01;9.20;99.90
36856;DHT22;22788;51.434;6.786;2024-03-02T09:29:26;9.10;99.90
36856;DHT22;22788;51.434;6.786;2024-03-02T09:31:52;9.20;99.90
36856;DHT22;22788;51.434;6.786;2024-03-02T09:34:18;9.20;99.90
36856;DHT22;22788;51.434;6.786;2024-03-02T09:36:43;9.80;99.90
36856;DHT22;22788;51.434;6.786;2024-03-02T09:39:09;9.30;99.90
36856;DHT22;22788;51.434;6.786;2024-03-02T09:41:35;9.30;99.90
36856;DHT22;22788;51.434;6.786;2024-03-02T09:44:03;9.30;99.90
36856;DHT22;22788;51.434;6.786;2024-03-02T09:46:29;9.30;99.90
36856;DHT22;22788;51.434;6.786;2024-03-02T09:48:55;9.20;99.90
36856;DHT22;22788;51.434;6.786;2024-03-02T09:51:21;9.30;99.90
36856;DHT22;22788;51.434;6.786;2024-03-02T09:53:47;9.30;99.90
36856;DHT22;22788;51.434;6.786;2024-03-02T09:56:13;9.40;99.90
36856;DHT22;22788;51.434;6.786;2024-03-02T09:58:38;9.40;99.90
36856;DHT22;22788;51.434;6.786;2024-03-02T10:01:07;9.30;99.90
36856;DHT22;22788;51.434;6.786;2024-03-02T10:03:33;9.30;99.90
36856;DHT22;22788;51.434;6.786;2024-03-02T10:06:20;9.50;99.90
36856;DHT22;22788;51.434;6.786;2024-03-02T10:08:46;9.50;99.90
36856;DHT22;22788;51.434;6.786;2024-03-02T10:11:25;9.60;99.90
36856;DHT22;22788;51.434;6.786;2024-03-02T10:13:51;9.60;99.90
36856;DHT22;22788;51.434;6.786;2024-03-02T10:16:25;9.60;99.90
36856;DHT22;22788;51.434;6.786;2024-03-02T10:18:51;9.60;99.90
36856;DHT22;22788;51.434;6.786;2024-03-02T10:21:16;9.60;99.90
36856;DHT22;22788;51.434;6.786;2024-03-02T10:23:42;9.60;99.90
36856;DHT22;22788;51.434;6.786;2024-03-02T10:26:16;9.60;99.90
36856;DHT22;22788;51.434;6.786;2024-03-02T10:28:46;9.90;99.90
36856;DHT22;22788;51.434;6.786;2024-03-02T10:31:11;9.80;99.90
36856;DHT22;22788;51.434;6.786;2024-03-02T10:33:38;9.80;99.90
36856;DHT22;22788;51.434;6.786;2024-03-02T10:36:05;9.80;99.90
36856;DHT22;22788;51.434;6.786;2024-03-02T10:38:31;9.80;99.90
36856;DHT22;22788;51.434;6.786;2024-03-02T10:40:58;9.80;99.90
36856;DHT22;22788;51.434;6.786;2024-03-02T10:43:25;9.80;99.90
36856;DHT22;22788;51.434;6.786;2024-03-02T10:45:52;9.90;99.90
36856;DHT22;22788;51.434;6.786;2024-03-02T10:48:18;10.70;99.90
36856;DHT22;22788;51.434;6.786;2024-03-02T10:50:45;10.00;99.90
36856;DHT22;22788;51.434;6.786;2024-03-02T10:53:10;10.00;99.90
36856;DHT22;22788;51.434;6.786;2024-03-02T10:55:36;10.00;99.90
36856;DHT22;22788;51.434;6.786;2024-03-02T10:58:04;9.70;99.90
36856;DHT22;22788;51.434;6.786;2024-03-02T11:00:33;10.10;99.90
36856;DHT22;22788;51.434;6.786;2024-03-02T11:03:05;10.10;99.90
36856;DHT22;22788;51.434;6.786;2024-03-02T11:05:33;11.50;99.90
36856;DHT22;22788;51.434;6.786;2024-03-02T11:08:07;10.20;99.90
36856;DHT22;22788;51.434;6.786;2024-03-02T11:10:35;10.90;99.90
36856;DHT22;22788;51.434;6.786;2024-03-02T11:13:05;10.10;99.90
36856;DHT22;22788;51.434;6.786;2024-03-02T11:15:31;10.10;99.90
36856;DHT22;22788;51.434;6.786;2024-03-02T11:17:57;10.10;99.90
36856;DHT22;22788;51.434;6.786;2024-03-02T11:20:23;10.10;99.90
36856;DHT22;22788;51.434;6.786;2024-03-02T11:22:50;10.10;99.90
36856;DHT22;22788;51.434;6.786;2024-03-02T11:25:27;10.20;99.90
36856;DHT22;22788;51.434;6.786;2024-03-02T11:28:03;10.30;99.90
36856;DHT22;22788;51.434;6.786;2024-03-02T11:30:51;10.30;99.90
36856;DHT22;22788;51.434;6.786;2024-03-02T11:33:23;10.00;99.90
36856;DHT22;22788;51.434;6.786;2024-03-02T11:35:52;9.90;99.90
36856;DHT22;22788;51.434;6.786;2024-03-02T11:38:18;10.30;99.90
36856;DHT22;22788;51.434;6.786;2024-03-02T11:40:45;10.40;99.90
36856;DHT22;22788;51.434;6.786;2024-03-02T11:43:11;10.20;99.90
36856;DHT22;22788;51.434;6.786;2024-03-02T11:45:37;10.40;99.90
36856;DHT22;22788;51.434;6.786;2024-03-02T11:48:06;11.10;99.90
36856;DHT22;22788;51.434;6.786;2024-03-02T11:50:34;10.50;99.90
36856;DHT22;22788;51.434;6.786;2024-03-02T11:53:07;10.60;99.90
36856;DHT22;22788;51.434;6.786;2024-03-02T11:55:48;10.40;99.90
36856;DHT22;22788;51.434;6.786;2024-03-02T11:58:15;10.40;99.90
36856;DHT22;22788;51.434;6.786;2024-03-02T12:00:43;10.50;99.90
36856;DHT22;22788;51.434;6.786;2024-03-02T12:03:12;10.60;99.90
36856;DHT22;22788;51.434;6.786;2024-03-02T12:05:39;10.60;99.90
36856;DHT22;22788;51.434;6.786;2024-03-02T12:08:06;11.40;99.90
36856;DHT22;22788;51.434;6.786;2024-03-02T12:10:39;10.60;99.90
36856;DHT22;22788;51.434;6.786;2024-03-02T12:13:07;10.60;99.90
36856;DHT22;22788;51.434;6.786;2024-03-02T12:15:34;10.90;99.90
36856;DHT22;22788;51.434;6.786;2024-03-02T12:18:01;10.60;99.90
36856;DHT22;22788;51.434;6.786;2024-03-02T12:20:30;10.60;99.90
36856;DHT22;22788;51.434;6.786;2024-03-02T12:22:58;10.60;99.90
36856;DHT22;22788;51.434;6.786;2024-03-02T12:25:25;10.60;99.90
36856;DHT22;22788;51.434;6.786;2024-03-02T12:27:54;10.60;99.90
36856;DHT22;22788;51.434;6.786;2024-03-02T12:30:26;11.40;99.90
36856;DHT22;22788;51.434;6.786;2024-03-02T12:32:54;10.60;99.90
36856;DHT22;22788;51.434;6.786;2024-03-02T12:35:20;10.70;99.90
36856;DHT22;22788;51.434;6.786;2024-03-02T12:37:47;10.70;99.90
36856;DHT22;22788;51.434;6.786;2024-03-02T12:40:14;10.30;99.90
36856;DHT22;22788;51.434;6.786;2024-03-02T12:42:40;10.60;99.90
36856;DHT22;22788;51.434;6.786;2024-03-02T12:45:06;10.60;99.90
36856;DHT22;22788;51.434;6.786;2024-03-02T12:47:34;10.60;99.90
36856;DHT22;22788;51.434;6.786;2024-03-02T12:50:00;11.30;99.90
36856;DHT22;22788;51.434;6.786;2024-03-02T12:52:26;10.60;99.90
36856;DHT22;22788;51.434;6.786;2024-03-02T12:54:52;10.70;99.90
36856;DHT22;22788;51.434;6.786;2024-03-02T12:57:18;10.70;99.90
36856;DHT22;22788;51.434;6.786;2024-03-02T12:59:45;11.40;99.90
36856;DHT22;22788;51.434;6.786;2024-03-02T13:02:17;11.20;99.90
36856;DHT22;22788;51.434;6.786;2024-03-02T13:04:44;10.60;99.90
36856;DHT22;22788;51.434;6.786;2024-03-02T13:07:10;10.70;99.90
36856;DHT22;22788;51.434;6.786;2024-03-02T13:09:36;10.70;99.90
36856;DHT22;22788;51.434;6.786;2024-03-02T13:12:03;11.60;99.90
36856;DHT22;22788;51.434;6.786;2024-03-02T13:14:32;10.80;99.90
36856;DHT22;22788;51.434;6.786;2024-03-02T13:16:58;10.80;99.90
36856;DHT22;22788;51.434;6.786;2024-03-02T13:19:24;10.40;99.90
36856;DHT22;22788;51.434;6.786;2024-03-02T13:21:51;10.90;99.90
36856;DHT22;22788;51.434;6.786;2024-03-02T13:24:16;10.80;99.90
36856;DHT22;22788;51.434;6.786;2024-03-02T13:26:42;11.20;99.90
36856;DHT22;22788;51.434;6.786;2024-03-02T13:29:09;10.90;99.90
36856;DHT22;22788;51.434;6.786;2024-03-02T13:31:35;10.90;99.90
36856;DHT22;22788;51.434;6.786;2024-03-02T13:34:01;11.00;99.90
36856;DHT22;22788;51.434;6.786;2024-03-02T13:36:26;11.00;99.90
36856;DHT22;22788;51.434;6.786;2024-03-02T13:38:53;11.70;99.90
36856;DHT22;22788;51.434;6.786;2024-03-02T13:41:19;11.50;99.90
36856;DHT22;22788;51.434;6.786;2024-03-02T13:43:45;11.00;99.90
36856;DHT22;22788;51.434;6.786;2024-03-02T13:46:10;10.90;99.90
36856;DHT22;22788;51.434;6.786;2024-03-02T13:48:36;11.00;99.90
36856;DHT22;22788;51.434;6.786;2024-03-02T13:51:02;11.60;99.90
36856;DHT22;22788;51.434;6.786;2024-03-02T13:53:28;11.10;99.90
36856;DHT22;22788;51.434;6.786;2024-03-02T13:55:55;11.20;99.90
36856;DHT22;22788;51.434;6.786;2024-03-02T13:58:21;11.10;99.90
36856;DHT22;22788;51.434;6.786;2024-03-02T14:00:47;11.10;99.90
36856;DHT22;22788;51.434;6.786;2024-03-02T14:03:12;11.00;99.90
36856;DHT22;22788;51.434;6.786;2024-03-02T14:05:38;11.10;99.90
36856;DHT22;22788;51.434;6.786;2024-03-02T14:08:04;11.10;99.90
36856;DHT22;22788;51.434;6.786;2024-03-02T14:13:07;11.10;99.90
36856;DHT22;22788;51.434;6.786;2024-03-02T14:15:32;11.70;99.90
36856;DHT22;22788;51.434;6.786;2024-03-02T14:25:43;11.10;99.90
36856;DHT22;22788;51.434;6.786;2024-03-02T14:28:10;11.10;99.90
36856;DHT22;22788;51.434;6.786;2024-03-02T14:30:36;11.00;99.90
36856;DHT22;22788;51.434;6.786;2024-03-02T14:33:01;11.90;99.90
36856;DHT22;22788;51.434;6.786;2024-03-02T14:35:27;11.00;99.90
36856;DHT22;22788;51.434;6.786;2024-03-02T14:37:53;11.70;99.90
36856;DHT22;22788;51.434;6.786;2024-03-02T14:40:18;11.20;99.90
36856;DHT22;22788;51.434;6.786;2024-03-02T17:04:25;11.70;99.90
36856;DHT22;22788;51.434;6.786;2024-03-02T17:06:50;11.60;99.90
36856;DHT22;22788;51.434;6.786;2024-03-02T17:09:17;11.60;99.90
36856;DHT22;22788;51.434;6.786;2024-03-02T17:11:43;12.10;99.90
36856;DHT22;22788;51.434;6.786;2024-03-02T17:14:09;11.50;99.90
36856;DHT22;22788;51.434;6.786;2024-03-02T17:16:36;11.40;99.90
36856;DHT22;22788;51.434;6.786;2024-03-02T17:19:02;11.40;99.90
36856;DHT22;22788;51.434;6.786;2024-03-02T17:21:28;11.40;99.90
36856;DHT22;22788;51.434;6.786;2024-03-02T17:23:53;11.40;99.90
36856;DHT22;22788;51.434;6.786;2024-03-02T17:26:20;11.40;99.90
36856;DHT22;22788;51.434;6.786;2024-03-02T17:28:46;11.40;99.90
36856;DHT22;22788;51.434;6.786;2024-03-02T17:31:12;11.90;99.90
36856;DHT22;22788;51.434;6.786;2024-03-02T17:33:37;11.30;99.90
36856;DHT22;22788;51.434;6.786;2024-03-02T17:36:03;11.40;99.90
36856;DHT22;22788;51.434;6.786;2024-03-02T17:38:29;11.40;99.90
36856;DHT22;22788;51.434;6.786;2024-03-02T17:40:54;11.40;99.90
36856;DHT22;22788;51.434;6.786;2024-03-02T17:43:22;11.60;99.90
36856;DHT22;22788;51.434;6.786;2024-03-02T17:45:47;11.50;99.90
36856;DHT22;22788;51.434;6.786;2024-03-02T17:48:13;11.80;99.90
36856;DHT22;22788;51.434;6.786;2024-03-02T17:50:38;11.40;99.90
36856;DHT22;22788;51.434;6.786;2024-03-02T17:53:04;11.30;99.90
36856;DHT22;22788;51.434;6.786;2024-03-02T17:55:30;11.30;99.90
36856;DHT22;22788;51.434;6.786;2024-03-02T17:57:55;11.70;99.90
36856;DHT22;22788;51.434;6.786;2024-03-02T18:00:22;11.40;99.90
36856;DHT22;22788;51.434;6.786;2024-03-02T18:02:48;11.40;99.90
36856;DHT22;22788;51.434;6.786;2024-03-02T18:05:14;11.40;99.90
36856;DHT22;22788;51.434;6.786;2024-03-02T18:07:39;11.40;99.90
36856;DHT22;22788;51.434;6.786;2024-03-02T18:10:06;11.40;99.90